Castorland, New York
Current Conditions -  °F | °C
As of 4:14 PM on Tuesday 21 Oct 2014 (Local Time) from KGTB Reporting Station
Drizzle Drizzle  
Wind Chill: 38°   Ceiling: 500
Heat Index: 45°   Visibility: 7mi
Dew Point: 45°   Wind: 13mph
Humidity: 100%   Direction: 40°NE
Pressure: 29.94"   Gusts: NA
Location:  43.89°N, 75.51°W
Report Text: KGTB 212014Z AUTO 04011KT 7SM -DZ OVC005 07/07 A2994 RMK AO2 DZB2014
Loading
Personal Weather Stations






























Interactive Weather Map
Tropical Storm Tracking
New forecast layout! Learn more

10-Day Weather Forecast

Advertisements
Track Severe Weather on mobile